Latest Coastal Weather Observations for Wadeye (Port Keats)

IDD60701

Issued at 11:21 pm CST Monday 26 September 2016 (issued every 10 minutes, with the page automatically refreshed every 10 minutes)

About coastal observations | Map of coastal stations | Coastal observations for NT | Marine services | Other Formats
Station Details ID: 014948 Name: PORT KEATS AIRPORT Lat: -14.25 Lon: 129.53 Height: 28.0 m
Data from the previous 72 hours. | See also: Recent months at Wadeye (Port Keats)
Date/Time
CST
Temp
°C
Wind Pressure Rain since
9am
mm
Weather Cloud Vis
km
Sea
Height
m
Swell
Dir  Spd
kts
Gust
kts
hPa Trend Height
m
Period
s
Dir
26/11:00pm 28.0 N 3 5 1010.2 - 0.0 - - - - - - -
26/10:30pm 27.6 CALM 0 0 1010.2 - 0.0 - - - - - - -
26/10:00pm 28.2 NW 1 5 1010.0 - 0.0 - - - - - - -
26/09:30pm 28.2 WNW 2 4 1009.9 - 0.0 - - - - - - -
26/09:00pm 28.7 NNW 5 6 1009.6 - 0.0 - - - - - - -
26/08:30pm 28.8 NW 5 6 1009.4 - 0.0 - - - - - - -
26/08:00pm 29.0 NNW 5 6 1009.0 - 0.0 - - - - - - -
26/07:30pm 29.2 NNW 4 5 1008.9 - 0.0 - - - - - - -
26/07:00pm 29.6 NNW 5 7 1008.3 - 0.0 - - - - - - -
26/06:30pm 30.1 W 5 6 1007.8 - 0.0 - - - - - - -
26/06:00pm 31.2 WNW 5 9 1007.7 - 0.0 - - - - - - -
26/05:30pm 31.8 NW 7 10 1007.4 - 0.0 - - - - - - -
26/05:00pm 32.3 NW 8 10 1007.3 - 0.0 - - - - - - -
26/04:30pm 32.9 NNW 9 12 1007.3 - 0.0 - - - - - - -
26/04:00pm 33.8 NW 9 12 1007.4 - 0.0 - - - - - - -
26/03:30pm 34.4 NNW 9 14 1007.4 - 0.0 - - - - - - -
26/03:00pm 34.5 N 9 15 1007.3 - 0.0 - - - - - - -
26/02:30pm 34.5 N 10 14 1007.4 - 0.0 - - - - - - -
26/02:00pm 34.5 N 10 14 1007.8 - 0.0 - - - - - - -
26/01:30pm 33.9 N 9 14 1008.2 - 0.0 - - - - - - -
26/01:00pm 33.6 N 11 16 1008.5 - 0.0 - - - - - - -
26/12:30pm 33.8 N 10 14 1009.2 - 0.0 - - - - - - -
26/12:00pm 34.1 NNE 10 14 1009.3 - 0.0 - - - - - - -
26/11:30am 33.6 N 8 12 1009.5 - 0.0 - - - - - - -
26/11:00am 33.4 N 9 13 1009.7 - 0.0 - - - - - - -
26/10:30am 33.2 N 8 11 1010.0 - 0.0 - - - - - - -
26/10:00am 32.4 NW 5 9 1010.1 - 0.0 - - - - - - -
26/09:30am 31.7 N 6 9 1009.9 - 0.0 - - - - - - -
26/09:00am 30.1 N 7 8 1009.9 - 0.0 - - - - - - -
26/08:30am 29.0 N 4 6 1009.7 - 0.0 - - - - - - -
26/08:00am 27.7 NE 2 4 1009.4 - 0.0 - - - - - - -
26/07:30am 26.5 CALM 0 0 1009.0 - 0.0 - - - - - - -
26/07:00am 24.5 CALM 0 0 1008.5 - 0.0 - - - - - - -
26/06:30am 24.7 CALM 0 0 1008.2 - 0.0 - - - - - - -
26/06:00am 24.8 CALM 0 0 1007.9 - 0.0 - - - - - - -
26/05:30am 25.1 CALM 0 0 1007.6 - 0.0 - - - - - - -
26/05:00am 24.8 CALM 0 0 1007.3 - 0.0 - - - - - - -
26/04:30am 25.5 CALM 0 0 1007.3 - 0.0 - - - - - - -
26/04:00am 25.6 CALM 0 0 1007.4 - 0.0 - - - - - - -
26/03:30am 26.3 CALM 0 0 1007.5 - 0.0 - - - - - - -
26/03:00am 26.2 WNW 2 4 1007.8 - 0.0 - - - - - - -
26/02:30am 26.1 CALM 0 3 1008.1 - 0.0 - - - - - - -
26/02:00am 26.1 W 2 3 1008.3 - 0.0 - - - - - - -
26/01:30am 26.9 CALM 0 0 1008.5 - 0.0 - - - - - - -
26/01:00am 27.1 WNW 4 5 1008.5 - 0.0 - - - - - - -
26/12:30am 27.7 NW 4 6 1008.8 - 0.0 - - - - - - -
26/12:00am 27.5 WNW 4 5 1009.0 - 0.0 - - - - - - -
 
Date/Time
CST
Temp
°C
Wind Pressure Rain since
9am
mm
Weather Cloud Vis
km
Sea
Height
m
Swell
Dir  Spd
kts
Gust
kts
hPa Trend Height
m
Period
s
Dir
25/11:30pm 27.5 WNW 3 5 1009.1 - 0.0 - - - - - - -
25/11:00pm 28.2 NNW 5 7 1009.2 - 0.0 - - - - - - -
25/10:30pm 28.3 N 5 6 1009.3 - 0.0 - - - - - - -
25/10:00pm 28.4 NNW 5 6 1009.1 - 0.0 - - - - - - -
25/09:30pm 28.5 NW 3 6 1008.8 - 0.0 - - - - - - -
25/09:00pm 28.3 WNW 3 5 1008.7 - 0.0 - - - - - - -
25/08:30pm 28.7 NW 4 5 1008.4 - 0.0 - - - - - - -
25/08:00pm 29.1 NNW 4 5 1008.4 - 0.0 - - - - - - -
25/07:30pm 29.4 NNW 5 7 1008.1 - 0.0 - - - - - - -
25/07:00pm 29.8 NW 5 7 1007.8 - 0.0 - - - - - - -
25/06:30pm 30.4 NNW 7 9 1007.4 - 0.0 - - - - - - -
25/06:00pm 31.4 NW 7 11 1007.1 - 0.0 - - - - - - -
25/05:30pm 32.1 NW 9 13 1006.9 - 0.0 - - - - - - -
25/05:00pm 32.7 NNW 9 13 1006.9 - 0.0 - - - - - - -
25/04:30pm 33.0 NW 9 15 1006.7 - 0.0 - - - - - - -
25/04:00pm 33.9 NW 9 15 1006.7 - 0.0 - - - - - - -
25/03:30pm 34.1 WNW 8 14 1006.8 - 0.0 - - - - - - -
25/03:00pm 34.1 WNW 9 14 1007.0 - 0.0 - - - - - - -
25/02:30pm 34.6 NW 10 16 1007.0 - 0.0 - - - - - - -
25/02:00pm 34.6 NW 8 14 1007.1 - 0.0 - - - - - - -
25/01:30pm 34.2 WNW 8 12 1007.7 - 0.0 - - - - - - -
25/01:00pm 34.1 WNW 8 13 1008.1 - 0.0 - - - - - - -
25/12:30pm 33.9 NW 8 12 1008.5 - 0.0 - - - - - - -
25/12:00pm 33.8 WNW 7 11 1009.0 - 0.0 - - - - - - -
25/11:30am 33.3 WNW 8 11 1009.6 - 0.0 - - - - - - -
25/11:00am 33.0 WNW 8 11 1009.9 - 0.0 - - - - - - -
25/10:30am 33.0 NW 7 11 1009.8 - 0.0 - - - - - - -
25/10:00am 32.0 WNW 6 10 1009.9 - 0.0 - - - - - - -
25/09:30am 31.5 WNW 6 9 1009.9 - 0.0 - - - - - - -
25/09:00am 30.5 W 5 9 1009.8 - 0.0 - - - - - - -
25/08:30am 29.7 WNW 5 8 1009.8 - 0.0 - - - - - - -
25/08:00am 28.4 CALM 0 3 1009.5 - 0.0 - - - - - - -
25/07:30am 27.5 NNW 1 4 1009.2 - 0.0 - - - - - - -
25/07:00am 26.8 NNW 2 4 1008.9 - 0.0 - - - - - - -
25/06:30am 26.1 W 3 4 1008.6 - 0.0 - - - - - - -
25/06:00am 26.4 W 3 5 1008.5 - 0.0 - - - - - - -
25/05:30am 26.7 WNW 3 5 1008.2 - 0.0 - - - - - - -
25/05:00am 26.8 W 3 4 1008.0 - 0.0 - - - - - - -
25/04:30am 27.1 W 4 8 1007.9 - 0.0 - - - - - - -
25/04:00am 27.3 WNW 5 7 1007.8 - 0.0 - - - - - - -
25/03:30am 27.2 WNW 5 9 1007.9 - 0.0 - - - - - - -
25/03:00am 27.3 WNW 5 7 1007.9 - 0.0 - - - - - - -
25/02:30am 27.3 WNW 4 7 1008.0 - 0.0 - - - - - - -
25/02:00am 27.3 NW 4 7 1008.1 - 0.0 - - - - - - -
25/01:30am 26.8 NW 5 6 1008.2 - 0.0 - - - - - - -
25/01:00am 26.1 WNW 4 6 1008.4 - 0.0 - - - - - - -
25/12:30am 25.1 NW 4 5 1008.4 - 0.0 - - - - - - -
25/12:00am 24.8 WNW 2 4 1008.7 - 0.0 - - - - - - -
 
Date/Time
CST
Temp
°C
Wind Pressure Rain since
9am
mm
Weather Cloud Vis
km
Sea
Height
m
Swell
Dir  Spd
kts
Gust
kts
hPa Trend Height
m
Period
s
Dir
24/11:30pm 25.6 CALM 0 0 1008.6 - 0.0 - - - - - - -
24/11:00pm 26.5 CALM 0 0 1008.6 - 0.0 - - - - - - -
24/10:30pm 27.0 CALM 0 0 1008.8 - 0.0 - - - - - - -
24/10:00pm 27.0 CALM 0 0 1008.7 - 0.0 - - - - - - -
24/09:30pm 27.7 N 3 5 1008.5 - 0.0 - - - - - - -
24/09:00pm 28.0 N 4 6 1008.3 - 0.0 - - - - - - -
24/08:30pm 28.3 N 5 6 1008.1 - 0.0 - - - - - - -
24/08:00pm 28.7 N 4 6 1007.9 - 0.0 - - - - - - -
24/07:30pm 29.2 NNW 4 6 1007.5 - 0.0 - - - - - - -
24/07:00pm 29.7 NW 4 7 1007.3 - 0.0 - - - - - - -
24/06:30pm 30.4 NW 7 9 1006.8 - 0.0 - - - - - - -
24/06:00pm 31.1 NW 8 11 1006.6 - 0.0 - - - - - - -
24/05:30pm 32.4 NW 8 11 1006.2 - 0.0 - - - - - - -
24/05:00pm 32.8 WNW 7 11 1006.2 - 0.0 - - - - - - -
24/04:30pm 32.6 NNW 9 14 1006.2 - 0.0 - - - - - - -
24/04:00pm 33.2 NW 9 13 1006.2 - 0.0 - - - - - - -
24/03:30pm 32.7 NW 9 14 1006.5 - 0.0 - - - - - - -
24/03:00pm 33.8 WNW 9 13 1006.6 - 0.0 - - - - - - -
24/02:30pm 32.9 WNW 8 13 1007.0 - 0.0 - - - - - - -
24/02:00pm 32.9 WNW 8 13 1007.4 - 0.0 - - - - - - -
24/01:30pm 32.9 WNW 8 14 1007.9 - 0.0 - - - - - - -
24/01:00pm 32.7 W 8 11 1008.4 - 0.0 - - - - - - -
24/12:30pm 31.9 WNW 8 14 1009.1 - 0.0 - - - - - - -
24/12:00pm 31.5 W 9 13 1009.7 - 0.0 - - - - - - -
24/11:30am 31.2 W 9 13 1010.2 - 0.0 - - - - - - -
24/11:00am 31.3 WSW 8 13 1010.5 - 0.0 - - - - - - -
24/10:30am 30.7 W 8 12 1010.7 - 0.0 - - - - - - -
24/10:00am 31.1 WNW 8 13 1010.8 - 0.0 - - - - - - -
24/09:30am 30.2 NW 7 11 1011.0 - 0.0 - - - - - - -
24/09:00am 29.6 W 5 9 1011.0 - 0.0 - - - - - - -
24/08:30am 28.6 WNW 5 7 1010.8 - 0.0 - - - - - - -
24/08:00am 27.1 CALM 0 0 1010.6 - 0.0 - - - - - - -
24/07:30am 25.8 CALM 0 0 1010.2 - 0.0 - - - - - - -
24/07:00am 25.3 CALM 0 0 1009.7 - 0.0 - - - - - - -
24/06:30am 24.6 CALM 0 0 1009.4 - 0.0 - - - - - - -
24/06:00am 24.8 CALM 0 0 1009.0 - 0.0 - - - - - - -
24/05:30am 24.7 CALM 0 0 1008.7 - 0.0 - - - - - - -
24/05:00am 24.5 CALM 0 0 1008.5 - 0.0 - - - - - - -
24/04:30am 24.9 CALM 0 0 1008.4 - 0.0 - - - - - - -
24/04:00am 25.1 CALM 0 0 1008.3 - 0.0 - - - - - - -
24/03:30am 25.2 CALM 0 0 1008.5 - 0.0 - - - - - - -
24/03:00am 25.4 CALM 0 0 1008.2 - 0.0 - - - - - - -
24/02:30am 25.2 W 3 4 1008.3 - 0.0 - - - - - - -
24/02:00am 24.8 WSW 3 4 1008.4 - 0.0 - - - - - - -
24/01:30am 24.6 CALM 0 0 1008.6 - 0.0 - - - - - - -
24/01:00am 24.9 CALM 0 0 1009.0 - 0.0 - - - - - - -
24/12:30am 25.5 CALM 0 0 1009.3 - 0.0 - - - - - - -
24/12:00am 25.5 CALM 0 0 1009.3 - 0.0 - - - - - - -
 
Date/Time
CST
Temp
°C
Wind Pressure Rain since
9am
mm
Weather Cloud Vis
km
Sea
Height
m
Swell
Dir  Spd
kts
Gust
kts
hPa Trend Height
m
Period
s
Dir
23/11:30pm 26.1 CALM 0 3 1009.3 - 0.0 - - - - - - -

Other Formats:

Comma delimited format used in spreadsheet applications
http://www.bom.gov.au/fwo/IDD60701/IDD60701.95111.axf

JavaScript Object Notation format (JSON) in row-major order
http://www.bom.gov.au/fwo/IDD60701/IDD60701.95111.json